KSGF/SGF METAR and TAF weather

Enter ICAO airport designator
Station Type Date Time Source
KSGF METAR 2022/11/30 10:52 UTC NOAA

KSGF 301052Z 30006KT 10SM CLR M04/M09 A3024 RMK AO2 SLP248 T10441094


Station Type Date Time Source
KSGF Decoded METAR 2022/11/30 10:52 UTC NOAA

SPRINGFIELD-BRANSON NATIONAL, MO, United States (KSGF) 37-14N 93-23W 389M
Nov 30, 2022 - 05:52 AM EST / 2022.11.30 1052 UTC
Wind: from the WNW (300 degrees) at 7 MPH (6 KT):0
Visibility: 10 mile(s):0
Sky conditions: clear
Temperature: 24.1 F (-4.4 C)
Windchill: 15 F (-9 C):1
Dew Point: 15.1 F (-9.4 C)
Relative Humidity: 68%
Pressure (altimeter): 30.24 in. Hg (1024 hPa)
ob: KSGF 301052Z 30006KT 10SM CLR M04/M09 A3024 RMK AO2 SLP248 T10441094
cycle: 11

Station Type Date Time Source
KSGF TAF 2022/11/30 10:24 UTC NOAA

TAF
AMD KSGF 301022Z 3010/0106 31007KT P6SM SKC

Example: see airport list